createdAt,value
2023-01-15T02:51:41.226Z,10.27
2023-01-15T02:52:41.162Z,10.27
2023-01-15T02:53:41.149Z,10.30
2023-01-15T02:54:41.141Z,10.22
2023-01-15T02:55:41.136Z,10.22
2023-01-15T02:56:41.127Z,10.32
2023-01-15T02:57:41.106Z,10.26
2023-01-15T02:58:41.091Z,10.33
2023-01-15T02:59:41.084Z,10.30
2023-01-15T03:00:41.134Z,10.36
2023-01-15T03:01:41.150Z,10.34
2023-01-15T03:02:46.138Z,10.29
2023-01-15T03:03:41.075Z,10.23
2023-01-15T03:04:41.072Z,10.04
2023-01-15T03:05:41.022Z,9.89
2023-01-15T03:06:41.045Z,9.71
2023-01-15T03:07:41.039Z,9.48
2023-01-15T03:08:40.983Z,9.39
2023-01-15T03:09:41.009Z,9.32
2023-01-15T03:10:40.965Z,9.35
2023-01-15T03:11:40.982Z,9.31
2023-01-15T03:12:40.947Z,9.26
2023-01-15T03:13:45.964Z,9.26
2023-01-15T03:14:40.919Z,9.20
2023-01-15T03:15:40.910Z,9.21
2023-01-15T03:16:40.908Z,9.13
2023-01-15T03:17:40.893Z,9.11
2023-01-15T03:18:40.883Z,9.14
2023-01-15T03:19:40.860Z,9.20
2023-01-15T03:20:40.862Z,9.01
2023-01-15T03:21:40.839Z,9.01
2023-01-15T03:22:40.844Z,8.96
2023-01-15T03:23:40.836Z,8.98
2023-01-15T03:24:45.838Z,8.96
2023-01-15T03:25:40.804Z,8.92
2023-01-15T03:26:40.778Z,8.95
2023-01-15T03:27:40.813Z,8.92
2023-01-15T03:28:40.768Z,8.92
2023-01-15T03:29:40.790Z,8.98
2023-01-15T03:30:40.747Z,8.94
2023-01-15T03:31:40.739Z,8.87
2023-01-15T03:32:40.747Z,8.92
2023-01-15T03:33:40.707Z,8.86
2023-01-15T03:34:40.700Z,8.89
2023-01-15T03:35:45.718Z,8.86
2023-01-15T03:36:40.673Z,8.86
2023-01-15T03:37:40.673Z,8.87
2023-01-15T03:38:40.656Z,8.83
2023-01-15T03:39:40.656Z,8.77
2023-01-15T03:40:40.636Z,8.77
2023-01-15T03:41:40.655Z,8.71
2023-01-15T03:42:40.619Z,8.68
2023-01-15T03:43:40.598Z,8.71
2023-01-15T03:44:40.583Z,8.71
2023-01-15T03:45:40.608Z,8.68
2023-01-15T03:46:45.595Z,8.70
2023-01-15T03:47:40.572Z,8.68
2023-01-15T03:48:40.545Z,8.68
2023-01-15T03:49:40.534Z,8.65
2023-01-15T03:50:40.521Z,8.70
2023-01-15T03:51:40.506Z,8.66
2023-01-15T03:52:40.504Z,8.74
2023-01-15T03:53:40.506Z,8.68
2023-01-15T03:54:40.469Z,8.62
2023-01-15T03:55:40.457Z,8.65
2023-01-15T03:56:40.448Z,8.59
2023-01-15T03:57:45.467Z,8.63
2023-01-15T03:58:40.432Z,8.59
2023-01-15T03:59:40.451Z,8.65
2023-01-15T04:00:40.405Z,8.63
2023-01-15T04:01:40.521Z,8.68
2023-01-15T04:02:40.437Z,8.66
2023-01-15T04:03:40.374Z,8.61
2023-01-15T04:04:40.360Z,8.63
2023-01-15T04:05:40.396Z,8.61
2023-01-15T04:06:40.346Z,8.63
2023-01-15T04:07:40.333Z,8.62
2023-01-15T04:08:45.333Z,8.59
2023-01-15T04:09:40.325Z,8.65
2023-01-15T04:10:40.316Z,8.68
2023-01-15T04:11:40.286Z,8.62
2023-01-15T04:12:40.289Z,8.62
2023-01-15T04:13:40.256Z,8.53
2023-01-15T04:14:40.263Z,8.53
2023-01-15T04:15:40.275Z,8.50
2023-01-15T04:16:40.224Z,8.52
2023-01-15T04:17:40.229Z,8.56
2023-01-15T04:18:40.198Z,8.53
2023-01-15T04:19:45.249Z,8.55
2023-01-15T04:20:40.180Z,8.61
2023-01-15T04:21:40.181Z,8.48
2023-01-15T04:22:41.168Z,8.48
2023-01-15T04:23:40.152Z,8.53
2023-01-15T04:24:40.135Z,8.58
2023-01-15T04:25:40.131Z,8.56
2023-01-15T04:26:40.113Z,8.50
2023-01-15T04:27:40.139Z,8.45
2023-01-15T04:28:40.087Z,8.48
2023-01-15T04:29:40.101Z,8.50
2023-01-15T04:30:45.144Z,8.44
2023-01-15T04:31:40.060Z,8.45
2023-01-15T04:32:40.054Z,8.50
2023-01-15T04:33:40.139Z,8.44
2023-01-15T04:34:40.028Z,8.38
2023-01-15T04:35:40.025Z,8.47
2023-01-15T04:36:40.011Z,8.45
2023-01-15T04:37:39.993Z,8.45
2023-01-15T04:38:39.991Z,8.44
2023-01-15T04:39:39.970Z,8.43
2023-01-15T04:40:39.955Z,8.40
2023-01-15T04:41:44.974Z,8.48
2023-01-15T04:42:40.937Z,8.38
2023-01-15T04:43:39.938Z,8.44
2023-01-15T04:44:39.917Z,8.48
2023-01-15T04:45:39.900Z,8.44
2023-01-15T04:46:39.901Z,8.40
2023-01-15T04:47:39.881Z,8.38
2023-01-15T04:48:39.881Z,8.38
2023-01-15T04:49:39.876Z,8.38
2023-01-15T04:50:40.546Z,8.44
2023-01-15T04:51:39.834Z,8.44
2023-01-15T04:52:44.856Z,8.41
2023-01-15T04:53:39.832Z,8.40
2023-01-15T04:54:39.810Z,8.36
2023-01-15T04:55:39.810Z,8.34
2023-01-15T04:56:39.786Z,8.37
2023-01-15T04:57:39.790Z,8.38
2023-01-15T04:58:39.805Z,8.33
2023-01-15T04:59:39.800Z,8.29
2023-01-15T05:00:39.736Z,8.34
2023-01-15T05:01:40.491Z,8.34
2023-01-15T05:02:39.783Z,8.40
2023-01-15T05:03:44.735Z,8.33
2023-01-15T05:04:39.801Z,8.34
2023-01-15T05:05:39.684Z,8.30
2023-01-15T05:06:39.678Z,8.29
2023-01-15T05:07:39.685Z,8.33
2023-01-15T05:08:39.671Z,8.30
2023-01-15T05:09:39.672Z,8.29
2023-01-15T05:10:39.632Z,8.34
2023-01-15T05:11:39.710Z,8.20
2023-01-15T05:12:39.607Z,8.26
2023-01-15T05:13:39.600Z,8.19
2023-01-15T05:14:44.610Z,8.22
2023-01-15T05:15:39.600Z,8.22
2023-01-15T05:16:39.559Z,8.08
2023-01-15T05:17:39.547Z,8.11
2023-01-15T05:18:39.542Z,8.16
2023-01-15T05:19:39.525Z,8.12
2023-01-15T05:20:39.517Z,8.12
2023-01-15T05:21:39.527Z,8.04
2023-01-15T05:22:39.493Z,8.02
2023-01-15T05:23:39.500Z,8.05
2023-01-15T05:24:39.484Z,8.15
2023-01-15T05:25:44.503Z,8.12
2023-01-15T05:26:39.461Z,8.00
2023-01-15T05:27:39.450Z,8.16
2023-01-15T05:28:39.432Z,8.04
2023-01-15T05:29:39.431Z,8.12
2023-01-15T05:30:39.403Z,8.01
2023-01-15T05:31:39.420Z,8.05
2023-01-15T05:32:39.386Z,8.10
2023-01-15T05:33:39.380Z,8.08
2023-01-15T05:34:39.357Z,8.08
2023-01-15T05:35:39.344Z,8.10
2023-01-15T05:36:44.353Z,8.00
2023-01-15T05:37:39.325Z,8.10
2023-01-15T05:38:39.333Z,8.11
2023-01-15T05:39:39.299Z,8.10
2023-01-15T05:40:39.286Z,8.12
2023-01-15T05:41:39.281Z,8.04
2023-01-15T05:42:39.269Z,8.02
2023-01-15T05:43:39.295Z,8.08
2023-01-15T05:44:39.245Z,8.02
2023-01-15T05:45:39.232Z,8.12
2023-01-15T05:46:39.288Z,8.02
2023-01-15T05:47:44.271Z,8.05
2023-01-15T05:48:39.201Z,8.12
2023-01-15T05:49:39.219Z,7.97
2023-01-15T05:50:39.224Z,8.04
2023-01-15T05:51:39.174Z,8.01
2023-01-15T05:52:39.153Z,8.00
2023-01-15T05:53:39.145Z,8.02
2023-01-15T05:54:39.147Z,7.98
2023-01-15T05:55:39.136Z,8.07
2023-01-15T05:56:39.112Z,8.02
2023-01-15T05:57:39.100Z,7.95
2023-01-15T05:58:44.109Z,8.00
2023-01-15T05:59:39.091Z,8.05
2023-01-15T06:00:39.075Z,8.01
2023-01-15T06:01:39.055Z,8.01
2023-01-15T06:02:39.067Z,8.00
2023-01-15T06:03:39.058Z,7.95
2023-01-15T06:04:39.044Z,8.01
2023-01-15T06:05:39.028Z,8.00
2023-01-15T06:06:38.999Z,8.08
2023-01-15T06:07:39.003Z,8.08
2023-01-15T06:08:39.025Z,8.00
2023-01-15T06:09:43.991Z,8.05
2023-01-15T06:10:38.956Z,8.02
2023-01-15T06:11:38.947Z,8.04
2023-01-15T06:12:38.950Z,8.00
2023-01-15T06:13:38.923Z,8.04
2023-01-15T06:14:38.913Z,8.02
2023-01-15T06:15:38.920Z,8.05
2023-01-15T06:16:40.999Z,8.05
2023-01-15T06:17:38.889Z,8.04
2023-01-15T06:18:38.870Z,8.04
2023-01-15T06:19:38.877Z,7.92
2023-01-15T06:20:43.864Z,8.00
2023-01-15T06:21:38.830Z,7.89
2023-01-15T06:22:38.844Z,8.00
2023-01-15T06:23:38.887Z,7.87
2023-01-15T06:24:38.819Z,7.95
2023-01-15T06:25:38.789Z,8.00
2023-01-15T06:26:38.788Z,8.00
2023-01-15T06:27:38.800Z,7.87
2023-01-15T06:28:38.763Z,7.89
2023-01-15T06:29:38.782Z,8.00
2023-01-15T06:30:39.480Z,7.87
2023-01-15T06:31:43.855Z,7.85
2023-01-15T06:32:38.723Z,7.83
2023-01-15T06:33:38.696Z,7.85
2023-01-15T06:34:38.698Z,7.85
2023-01-15T06:35:38.682Z,7.86
2023-01-15T06:36:38.663Z,7.82
2023-01-15T06:37:38.653Z,7.85
2023-01-15T06:38:38.655Z,7.85
2023-01-15T06:39:38.663Z,7.80
2023-01-15T06:40:38.622Z,7.79
2023-01-15T06:41:38.643Z,7.79
2023-01-15T06:42:43.658Z,7.77
2023-01-15T06:43:38.597Z,7.69
2023-01-15T06:44:38.601Z,7.69
2023-01-15T06:45:38.602Z,7.75
2023-01-15T06:46:38.650Z,7.74
2023-01-15T06:47:38.548Z,7.71
2023-01-15T06:48:38.535Z,7.71
2023-01-15T06:49:38.541Z,7.75
2023-01-15T06:50:38.511Z,7.72
2023-01-15T06:51:38.500Z,7.67
2023-01-15T06:52:38.526Z,7.63
2023-01-15T06:53:43.496Z,7.60
2023-01-15T06:54:38.478Z,7.67
2023-01-15T06:55:38.450Z,7.61
2023-01-15T06:56:38.439Z,7.63
2023-01-15T06:57:38.428Z,7.61
2023-01-15T06:58:38.448Z,7.58
2023-01-15T06:59:39.412Z,7.57
2023-01-15T07:00:38.485Z,7.52
2023-01-15T07:01:38.431Z,7.67
2023-01-15T07:02:38.376Z,7.53
2023-01-15T07:03:38.394Z,7.58
2023-01-15T07:04:43.385Z,7.55
2023-01-15T07:05:38.341Z,7.52
2023-01-15T07:06:38.329Z,7.52
2023-01-15T07:07:38.315Z,7.49
2023-01-15T07:08:38.329Z,7.39
2023-01-15T07:09:39.295Z,7.49
2023-01-15T07:10:38.293Z,7.37
2023-01-15T07:11:38.273Z,7.39
2023-01-15T07:12:38.259Z,7.37
2023-01-15T07:13:38.256Z,7.53
2023-01-15T07:14:38.236Z,7.37
2023-01-15T07:15:43.266Z,7.42
2023-01-15T07:16:38.247Z,7.46
2023-01-15T07:17:38.222Z,7.48
2023-01-15T07:18:38.193Z,7.39
2023-01-15T07:19:38.197Z,7.43
2023-01-15T07:20:38.184Z,7.30
2023-01-15T07:21:38.164Z,7.39
2023-01-15T07:22:38.150Z,7.32
2023-01-15T07:23:38.137Z,7.30
2023-01-15T07:24:38.130Z,7.32
2023-01-15T07:25:38.134Z,7.40
2023-01-15T07:26:43.155Z,7.32
2023-01-15T07:27:38.105Z,7.34
2023-01-15T07:28:39.083Z,7.39
2023-01-15T07:29:38.074Z,7.45
2023-01-15T07:30:39.073Z,7.32
2023-01-15T07:31:38.136Z,7.30
2023-01-15T07:32:38.070Z,7.37
2023-01-15T07:33:38.034Z,7.31
2023-01-15T07:34:38.026Z,7.31
2023-01-15T07:35:38.028Z,7.24
2023-01-15T07:36:38.000Z,7.24
2023-01-15T07:37:44.031Z,7.24
2023-01-15T07:38:37.974Z,7.20
2023-01-15T07:39:37.979Z,7.28
2023-01-15T07:40:37.990Z,7.32
2023-01-15T07:41:37.937Z,7.17
2023-01-15T07:42:37.928Z,7.16
2023-01-15T07:43:37.944Z,7.15
2023-01-15T07:44:37.905Z,7.09
2023-01-15T07:45:37.926Z,7.07
2023-01-15T07:46:37.877Z,7.12
2023-01-15T07:47:37.889Z,7.10
2023-01-15T07:48:42.882Z,7.02
2023-01-15T07:49:37.849Z,7.07
2023-01-15T07:50:37.834Z,7.06
2023-01-15T07:51:37.844Z,7.09
2023-01-15T07:52:37.815Z,7.09
2023-01-15T07:53:38.797Z,7.10
2023-01-15T07:54:37.788Z,7.06
2023-01-15T07:55:37.780Z,7.10
2023-01-15T07:56:37.778Z,7.05
2023-01-15T07:57:37.761Z,7.12
2023-01-15T07:58:37.749Z,7.06
2023-01-15T07:59:42.756Z,7.09
2023-01-15T08:00:37.726Z,6.98
2023-01-15T08:01:37.833Z,6.97
2023-01-15T08:02:37.747Z,7.02
2023-01-15T08:03:37.737Z,6.92
2023-01-15T08:04:37.677Z,6.98
2023-01-15T08:05:37.676Z,6.97
2023-01-15T08:06:37.679Z,7.02
2023-01-15T08:07:37.644Z,6.94
2023-01-15T08:08:37.641Z,6.95
2023-01-15T08:09:37.620Z,6.92
2023-01-15T08:10:42.635Z,6.88
2023-01-15T08:11:37.612Z,6.88
2023-01-15T08:12:38.597Z,6.89
2023-01-15T08:13:37.581Z,6.87
2023-01-15T08:14:37.564Z,6.80
2023-01-15T08:15:37.557Z,6.85
2023-01-15T08:16:37.579Z,6.89
2023-01-15T08:17:37.537Z,6.89
2023-01-15T08:18:37.626Z,6.84
2023-01-15T08:19:37.511Z,6.77
2023-01-15T08:20:37.503Z,6.81
2023-01-15T08:21:42.526Z,6.76
2023-01-15T08:22:37.473Z,6.74
2023-01-15T08:23:37.467Z,6.97
2023-01-15T08:24:37.453Z,6.85
2023-01-15T08:25:37.440Z,6.92
2023-01-15T08:26:37.542Z,6.88
2023-01-15T08:27:37.417Z,6.85
2023-01-15T08:28:37.406Z,6.79
2023-01-15T08:29:37.400Z,6.85
2023-01-15T08:30:37.392Z,6.80
2023-01-15T08:31:37.411Z,6.88
2023-01-15T08:32:42.422Z,6.76
2023-01-15T08:33:37.351Z,6.87
2023-01-15T08:34:37.339Z,6.81
2023-01-15T08:35:37.330Z,6.88
2023-01-15T08:36:37.321Z,6.92
2023-01-15T08:37:37.323Z,6.80
2023-01-15T08:38:37.296Z,6.84
2023-01-15T08:39:37.281Z,6.84
2023-01-15T08:40:37.272Z,6.85
2023-01-15T08:41:37.263Z,6.74
2023-01-15T08:42:37.278Z,6.85
2023-01-15T08:43:42.284Z,6.97
2023-01-15T08:44:37.232Z,6.79
2023-01-15T08:45:37.267Z,6.88
2023-01-15T08:46:37.222Z,6.94
2023-01-15T08:47:37.217Z,6.79
2023-01-15T08:48:37.185Z,6.77
2023-01-15T08:49:37.168Z,6.84
2023-01-15T08:50:37.157Z,6.77
2023-01-15T08:51:37.146Z,6.85
2023-01-15T08:52:37.158Z,6.88
2023-01-15T08:53:38.130Z,6.76
2023-01-15T08:54:42.361Z,6.94
2023-01-15T08:55:37.105Z,6.76
2023-01-15T08:56:37.094Z,6.76
2023-01-15T08:57:37.091Z,6.81
2023-01-15T08:58:37.085Z,6.79
2023-01-15T08:59:37.071Z,6.77
2023-01-15T09:00:37.056Z,6.87
2023-01-15T09:01:37.209Z,6.87
2023-01-15T09:02:37.040Z,6.89
2023-01-15T09:03:37.050Z,6.84
2023-01-15T09:04:37.054Z,6.73
2023-01-15T09:05:42.022Z,6.87
2023-01-15T09:06:37.034Z,6.87
2023-01-15T09:07:37.081Z,6.88
2023-01-15T09:08:36.957Z,6.87
2023-01-15T09:09:36.965Z,6.92
2023-01-15T09:10:36.948Z,6.89
2023-01-15T09:11:36.943Z,6.76
2023-01-15T09:12:36.918Z,6.76
2023-01-15T09:13:36.915Z,6.76
2023-01-15T09:15:00.479Z,6.79
2023-01-15T09:15:37.891Z,6.74
2023-01-15T09:16:41.950Z,6.80
2023-01-15T09:17:36.858Z,6.77
2023-01-15T09:18:36.891Z,6.74
2023-01-15T09:19:36.831Z,6.91
2023-01-15T09:20:36.828Z,6.95
2023-01-15T09:21:36.816Z,6.89
2023-01-15T09:22:36.852Z,6.92
2023-01-15T09:23:36.819Z,6.92
2023-01-15T09:24:36.777Z,6.88
2023-01-15T09:25:36.767Z,6.97
2023-01-15T09:26:36.773Z,6.97
2023-01-15T09:27:41.802Z,6.97
2023-01-15T09:28:36.750Z,6.95
2023-01-15T09:29:36.724Z,6.92
2023-01-15T09:30:36.737Z,7.05
2023-01-15T09:31:36.702Z,6.94
2023-01-15T09:32:36.687Z,6.98
2023-01-15T09:33:36.688Z,7.02
2023-01-15T09:34:36.673Z,6.99
2023-01-15T09:35:36.683Z,7.02
2023-01-15T09:36:36.650Z,6.97
2023-01-15T09:37:36.627Z,7.06
2023-01-15T09:38:41.669Z,7.06
2023-01-15T09:39:36.609Z,7.06
2023-01-15T09:40:36.602Z,7.09
2023-01-15T09:41:36.581Z,7.07
2023-01-15T09:42:36.586Z,7.13
2023-01-15T09:43:44.997Z,7.13
2023-01-15T09:44:37.582Z,7.05
2023-01-15T09:45:36.550Z,7.16
2023-01-15T09:46:36.538Z,7.10
2023-01-15T09:47:36.521Z,7.09
2023-01-15T09:48:36.516Z,7.12
2023-01-15T09:49:41.531Z,7.05
2023-01-15T09:50:36.487Z,7.21
2023-01-15T09:51:36.483Z,7.13
2023-01-15T09:52:36.460Z,7.24
2023-01-15T09:53:36.445Z,7.17
2023-01-15T09:54:36.464Z,7.16
2023-01-15T09:55:36.445Z,7.20
2023-01-15T09:56:36.421Z,7.15
2023-01-15T09:57:36.402Z,7.06
2023-01-15T09:58:36.408Z,7.15
2023-01-15T09:59:36.411Z,7.05
2023-01-15T10:00:41.395Z,7.20
2023-01-15T10:01:36.400Z,7.12
2023-01-15T10:02:36.355Z,7.21
2023-01-15T10:03:36.402Z,7.06
2023-01-15T10:04:36.350Z,7.09
2023-01-15T10:05:36.320Z,7.02
2023-01-15T10:06:36.317Z,7.06
2023-01-15T10:07:36.305Z,7.10
2023-01-15T10:08:36.309Z,7.09
2023-01-15T10:09:36.286Z,7.09
2023-01-15T10:10:36.261Z,7.17
2023-01-15T10:11:41.270Z,7.16
2023-01-15T10:12:36.240Z,7.06
2023-01-15T10:13:36.273Z,7.16
2023-01-15T10:14:36.282Z,7.17
2023-01-15T10:15:36.236Z,7.13
2023-01-15T10:16:36.192Z,7.12
2023-01-15T10:17:36.180Z,7.16
2023-01-15T10:18:36.172Z,7.13
2023-01-15T10:19:44.407Z,7.17
2023-01-15T10:20:37.181Z,7.23
2023-01-15T10:21:36.138Z,7.30
2023-01-15T10:22:41.153Z,7.28
2023-01-15T10:23:36.145Z,7.31
2023-01-15T10:24:36.209Z,7.30
2023-01-15T10:25:36.104Z,7.25
2023-01-15T10:26:36.111Z,7.25
2023-01-15T10:27:36.231Z,7.31
2023-01-15T10:28:36.075Z,7.20
2023-01-15T10:29:36.060Z,7.24
2023-01-15T10:30:36.071Z,7.30
2023-01-15T10:31:36.073Z,7.27
2023-01-15T10:32:36.019Z,7.16
2023-01-15T10:33:41.026Z,6.74
2023-01-15T10:34:35.998Z,6.66
2023-01-15T10:35:36.132Z,6.56
2023-01-15T10:36:35.992Z,6.30
2023-01-15T10:37:36.016Z,6.08
2023-01-15T10:38:35.953Z,5.96
2023-01-15T10:39:35.938Z,6.03
2023-01-15T10:40:35.938Z,5.89
2023-01-15T10:41:35.918Z,5.82
2023-01-15T10:42:35.914Z,5.71
2023-01-15T10:43:35.893Z,5.75
2023-01-15T10:44:40.901Z,5.68
2023-01-15T10:45:35.893Z,5.74
2023-01-15T10:46:35.877Z,5.71
2023-01-15T10:47:35.852Z,5.63
2023-01-15T10:48:35.880Z,5.74
2023-01-15T10:49:35.825Z,5.93
2023-01-15T10:50:36.826Z,5.83
2023-01-15T10:51:35.806Z,5.78
2023-01-15T10:52:35.798Z,5.78
2023-01-15T10:53:35.782Z,5.78
2023-01-15T10:54:35.769Z,5.65
2023-01-15T10:55:40.787Z,5.65
2023-01-15T10:56:35.768Z,5.71
2023-01-15T10:57:35.737Z,5.75
2023-01-15T10:58:35.742Z,5.79
2023-01-15T10:59:35.722Z,5.65
2023-01-15T11:00:35.723Z,5.64
2023-01-15T11:01:35.755Z,5.61
2023-01-15T11:02:35.877Z,5.67
2023-01-15T11:03:35.671Z,5.64
2023-01-15T11:04:35.671Z,5.43
2023-01-15T11:05:35.676Z,5.42
2023-01-15T11:06:40.660Z,5.48
2023-01-15T11:07:35.625Z,5.51
2023-01-15T11:09:07.808Z,5.51
2023-01-15T11:09:36.602Z,5.53
2023-01-15T11:10:35.634Z,5.45
2023-01-15T11:11:35.603Z,5.49
2023-01-15T11:12:35.569Z,5.48
2023-01-15T11:13:35.580Z,5.30
2023-01-15T11:14:35.556Z,5.33
2023-01-15T11:15:35.622Z,5.42
2023-01-15T11:16:35.608Z,5.45
2023-01-15T11:17:41.543Z,5.40
2023-01-15T11:18:35.512Z,5.46
2023-01-15T11:19:35.493Z,5.46
2023-01-15T11:20:35.487Z,5.45
2023-01-15T11:21:35.494Z,5.43
2023-01-15T11:22:35.466Z,5.40
2023-01-15T11:23:35.448Z,5.42
2023-01-15T11:24:35.484Z,5.48
2023-01-15T11:25:35.438Z,5.45
2023-01-15T11:26:35.514Z,5.53
2023-01-15T11:27:35.403Z,5.48
2023-01-15T11:28:40.436Z,5.45
2023-01-15T11:29:35.413Z,5.43
2023-01-15T11:30:35.377Z,5.40
2023-01-15T11:31:35.373Z,5.35
2023-01-15T11:32:35.369Z,5.36
2023-01-15T11:33:35.351Z,5.28
2023-01-15T11:34:35.343Z,5.28
2023-01-15T11:35:35.336Z,5.33
2023-01-15T11:36:35.344Z,5.21
2023-01-15T11:37:35.363Z,5.18
2023-01-15T11:38:35.285Z,5.30
2023-01-15T11:39:40.320Z,5.27
2023-01-15T11:40:35.297Z,5.33
2023-01-15T11:41:35.311Z,5.28
2023-01-15T11:42:35.242Z,5.24
2023-01-15T11:43:35.238Z,5.17
2023-01-15T11:44:35.262Z,5.06
2023-01-15T11:45:35.282Z,5.12
2023-01-15T11:46:35.347Z,5.09
2023-01-15T11:47:35.303Z,5.04
2023-01-15T11:48:35.187Z,4.86
2023-01-15T11:49:35.194Z,4.91
2023-01-15T11:50:40.178Z,4.94
2023-01-15T11:51:35.154Z,4.94
2023-01-15T11:52:35.128Z,4.91
2023-01-15T11:53:35.124Z,4.82
2023-01-15T11:54:35.116Z,4.88
2023-01-15T11:55:35.098Z,4.80
2023-01-15T11:56:35.126Z,4.86
2023-01-15T11:57:35.082Z,5.02
2023-01-15T11:58:35.063Z,5.04
2023-01-15T11:59:37.078Z,5.04
2023-01-15T12:00:35.044Z,5.06
2023-01-15T12:01:40.062Z,5.04
2023-01-15T12:02:35.020Z,5.02
2023-01-15T12:03:35.136Z,4.88
2023-01-15T12:04:35.012Z,4.88
2023-01-15T12:05:34.989Z,4.91
2023-01-15T12:06:34.976Z,4.92
2023-01-15T12:07:34.976Z,4.88
2023-01-15T12:08:34.955Z,4.85
2023-01-15T12:09:34.943Z,4.77
2023-01-15T12:10:34.928Z,4.73
2023-01-15T12:11:34.920Z,4.91
2023-01-15T12:12:39.937Z,4.77
2023-01-15T12:13:34.906Z,4.82
2023-01-15T12:14:34.895Z,4.89
2023-01-15T12:15:34.902Z,4.92
2023-01-15T12:16:34.866Z,4.86
2023-01-15T12:17:36.687Z,4.99
2023-01-15T12:18:34.861Z,4.89
2023-01-15T12:19:34.851Z,4.88
2023-01-15T12:20:34.832Z,4.92
2023-01-15T12:21:34.811Z,4.89
2023-01-15T12:22:34.845Z,4.96
2023-01-15T12:23:39.842Z,4.96
2023-01-15T12:24:34.812Z,5.02
2023-01-15T12:25:34.797Z,5.06
2023-01-15T12:26:34.781Z,4.96
2023-01-15T12:27:34.763Z,4.99
2023-01-15T12:28:34.733Z,5.24
2023-01-15T12:29:34.723Z,5.35
2023-01-15T12:30:34.715Z,5.31
2023-01-15T12:31:34.752Z,5.31
2023-01-15T12:32:34.695Z,5.35
2023-01-15T12:33:34.681Z,5.30
2023-01-15T12:34:39.711Z,5.30
2023-01-15T12:35:34.667Z,5.25
2023-01-15T12:36:34.644Z,5.22
2023-01-15T12:37:34.647Z,5.27
2023-01-15T12:38:34.620Z,5.33
2023-01-15T12:39:34.613Z,5.46
2023-01-15T12:40:34.612Z,5.48
2023-01-15T12:41:34.609Z,5.60
2023-01-15T12:42:34.592Z,5.60
2023-01-15T12:43:35.564Z,5.67
2023-01-15T12:44:36.042Z,5.72
2023-01-15T12:45:39.648Z,5.79
2023-01-15T12:46:34.606Z,5.79
2023-01-15T12:47:34.535Z,5.83
2023-01-15T12:48:34.524Z,5.96
2023-01-15T12:49:34.501Z,5.94
2023-01-15T12:50:34.484Z,6.14
2023-01-15T12:51:34.479Z,6.19
2023-01-15T12:52:34.477Z,6.40
2023-01-15T12:53:34.571Z,6.55
2023-01-15T12:54:34.470Z,6.73
2023-01-15T12:55:34.494Z,6.71
2023-01-15T12:56:39.472Z,6.92
2023-01-15T12:57:35.440Z,7.13
2023-01-15T12:58:34.443Z,7.25
2023-01-15T12:59:34.438Z,7.53
2023-01-15T13:00:34.482Z,7.53
2023-01-15T13:01:34.449Z,7.58
2023-01-15T13:02:34.377Z,7.43
2023-01-15T13:03:34.342Z,7.63
2023-01-15T13:04:34.352Z,7.52
2023-01-15T13:05:34.322Z,7.57
2023-01-15T13:06:34.335Z,7.27
2023-01-15T13:07:39.351Z,7.37
2023-01-15T13:08:34.292Z,7.63
2023-01-15T13:09:34.277Z,7.83
2023-01-15T13:10:34.295Z,7.95
2023-01-15T13:11:34.256Z,7.82
2023-01-15T13:12:34.243Z,7.98
2023-01-15T13:13:34.292Z,7.97
2023-01-15T13:14:34.227Z,8.29
2023-01-15T13:15:34.212Z,8.44
2023-01-15T13:16:34.226Z,8.53
2023-01-15T13:17:34.267Z,8.71
2023-01-15T13:18:39.210Z,8.95
2023-01-15T13:19:34.164Z,8.99
2023-01-15T13:20:34.169Z,9.24
2023-01-15T13:21:34.157Z,9.20
2023-01-15T13:22:34.130Z,8.65
2023-01-15T13:23:34.129Z,8.41
2023-01-15T13:24:34.110Z,9.23
2023-01-15T13:25:34.100Z,9.72
2023-01-15T13:26:34.087Z,9.78
2023-01-15T13:27:34.074Z,9.64
2023-01-15T13:28:34.075Z,9.14
2023-01-15T13:29:39.082Z,8.50
2023-01-15T13:30:34.045Z,8.08
2023-01-15T13:31:34.043Z,7.93
2023-01-15T13:32:34.061Z,7.92
2023-01-15T13:33:34.063Z,7.80
2023-01-15T13:34:34.013Z,7.77
2023-01-15T13:35:33.991Z,7.75
2023-01-15T13:36:33.995Z,7.74
2023-01-15T13:37:33.973Z,7.79
2023-01-15T13:38:34.037Z,7.61
2023-01-15T13:39:33.943Z,7.67
2023-01-15T13:40:38.975Z,7.67
2023-01-15T13:41:33.934Z,7.67
2023-01-15T13:42:33.912Z,7.64
2023-01-15T13:43:33.963Z,7.58
2023-01-15T13:44:33.882Z,7.52
2023-01-15T13:45:33.935Z,7.52
2023-01-15T13:46:33.868Z,7.53
2023-01-15T13:47:33.855Z,7.63
2023-01-15T13:48:33.923Z,7.55
2023-01-15T13:49:33.875Z,7.63
2023-01-15T13:50:33.818Z,7.63
2023-01-15T13:51:38.845Z,7.50
2023-01-15T13:52:33.798Z,7.63
2023-01-15T13:53:33.804Z,7.60
2023-01-15T13:54:33.773Z,7.60
2023-01-15T13:55:33.766Z,7.64
2023-01-15T13:56:33.753Z,7.53
2023-01-15T13:57:33.757Z,7.64
2023-01-15T13:58:33.766Z,7.67
2023-01-15T13:59:33.720Z,7.64
2023-01-15T14:00:33.733Z,7.63
2023-01-15T14:01:33.892Z,7.68
2023-01-15T14:02:38.793Z,7.72
2023-01-15T14:03:33.676Z,7.71
2023-01-15T14:04:33.680Z,7.80
2023-01-15T14:05:33.665Z,7.83
2023-01-15T14:06:33.646Z,7.74
2023-01-15T14:07:33.656Z,7.74
2023-01-15T14:08:33.636Z,7.72
2023-01-15T14:09:33.645Z,7.83
2023-01-15T14:10:33.629Z,7.82
2023-01-15T14:11:33.585Z,7.82
2023-01-15T14:12:33.577Z,7.74
2023-01-15T14:13:38.588Z,7.79
2023-01-15T14:14:33.584Z,7.79
2023-01-15T14:15:33.560Z,7.87
2023-01-15T14:16:33.617Z,7.83
2023-01-15T14:17:33.551Z,7.83
2023-01-15T14:18:33.513Z,7.71
2023-01-15T14:19:33.535Z,7.67
2023-01-15T14:20:33.485Z,7.69
2023-01-15T14:21:33.579Z,7.74
2023-01-15T14:22:33.462Z,7.63
2023-01-15T14:23:33.453Z,7.67
2023-01-15T14:24:38.471Z,7.61
2023-01-15T14:25:33.461Z,7.63
2023-01-15T14:26:33.449Z,7.68
2023-01-15T14:27:33.406Z,7.63
2023-01-15T14:28:33.408Z,7.57
2023-01-15T14:29:33.400Z,7.50
2023-01-15T14:30:33.375Z,7.55
2023-01-15T14:31:33.446Z,7.53
2023-01-15T14:32:33.348Z,7.53
2023-01-15T14:33:33.359Z,7.57
2023-01-15T14:34:33.342Z,7.64
2023-01-15T14:35:38.344Z,7.63
2023-01-15T14:36:33.345Z,7.55
2023-01-15T14:37:33.305Z,7.52
2023-01-15T14:38:33.504Z,7.60
2023-01-15T14:39:33.279Z,7.50
2023-01-15T14:40:33.261Z,7.61
2023-01-15T14:41:33.257Z,7.50
2023-01-15T14:42:33.245Z,7.53
2023-01-15T14:43:33.228Z,7.63
2023-01-15T14:44:33.227Z,7.53
2023-01-15T14:45:33.383Z,7.68
2023-01-15T14:46:38.219Z,7.60
2023-01-15T14:47:33.188Z,7.64
2023-01-15T14:48:33.171Z,7.60
2023-01-15T14:49:33.171Z,7.63
2023-01-15T14:50:33.159Z,7.61
2023-01-15T14:51:33.141Z,7.64
2023-01-15T14:52:33.140Z,7.61
2023-01-15T14:53:33.119Z,7.58
2023-01-15T14:54:33.117Z,7.52
2023-01-15T14:55:33.099Z,7.60
2023-01-15T14:56:33.079Z,7.50
2023-01-15T14:57:38.105Z,7.48
2023-01-15T14:58:33.068Z,7.50
2023-01-15T14:59:33.076Z,7.46
2023-01-15T15:00:33.039Z,7.39
2023-01-15T15:01:33.180Z,7.37
2023-01-15T15:02:33.054Z,7.46
2023-01-15T15:03:33.010Z,7.40
2023-01-15T15:04:33.008Z,7.35
2023-01-15T15:05:33.005Z,7.30
2023-01-15T15:06:33.980Z,7.31
2023-01-15T15:07:32.959Z,7.35
2023-01-15T15:08:37.967Z,7.37
2023-01-15T15:09:33.377Z,7.23
2023-01-15T15:10:32.926Z,7.30
2023-01-15T15:11:32.969Z,7.27
2023-01-15T15:12:32.905Z,7.30
2023-01-15T15:13:32.891Z,7.27
2023-01-15T15:14:32.892Z,7.21
2023-01-15T15:15:32.881Z,7.28
2023-01-15T15:16:32.940Z,7.23
2023-01-15T15:17:32.846Z,7.24
2023-01-15T15:18:32.840Z,7.20
2023-01-15T15:19:37.855Z,7.16
2023-01-15T15:20:32.821Z,7.09
2023-01-15T15:21:32.810Z,7.23
2023-01-15T15:22:32.795Z,7.16
2023-01-15T15:23:32.805Z,7.05
2023-01-15T15:24:32.771Z,7.10
2023-01-15T15:25:32.832Z,7.09
2023-01-15T15:26:32.766Z,7.09
2023-01-15T15:27:32.736Z,6.97
2023-01-15T15:28:32.724Z,6.98
2023-01-15T15:29:32.726Z,6.94
2023-01-15T15:30:37.758Z,6.92
2023-01-15T15:31:33.334Z,6.95
2023-01-15T15:32:32.675Z,6.88
2023-01-15T15:33:33.666Z,6.91
2023-01-15T15:34:32.685Z,6.85
2023-01-15T15:35:32.660Z,6.80
2023-01-15T15:36:32.699Z,6.80
2023-01-15T15:37:32.629Z,6.77
2023-01-15T15:38:32.614Z,6.76
2023-01-15T15:39:32.707Z,6.77
2023-01-15T15:56:03.547Z,6.77
2023-01-15T15:56:54.448Z,6.76
2023-01-15T15:57:54.436Z,6.70
2023-01-15T15:58:54.418Z,6.71
2023-01-15T15:59:54.412Z,6.71
2023-01-15T16:00:54.407Z,6.77
2023-01-15T16:01:54.551Z,6.77
2023-01-15T16:02:54.510Z,6.80
2023-01-15T16:03:54.379Z,6.79
2023-01-15T16:04:54.356Z,6.81
2023-01-15T16:05:54.375Z,6.76
2023-01-15T16:06:59.353Z,6.80
2023-01-15T16:07:54.317Z,6.79
2023-01-15T16:08:54.321Z,6.70
2023-01-15T16:09:54.304Z,6.74
2023-01-15T16:10:54.311Z,6.71
2023-01-15T16:11:54.280Z,6.74
2023-01-15T16:12:54.321Z,6.70
2023-01-15T16:13:54.470Z,6.70
2023-01-15T16:14:54.240Z,6.76
2023-01-15T16:15:56.133Z,6.76
2023-01-15T16:16:54.223Z,6.77
2023-01-15T16:17:59.247Z,6.71
2023-01-15T16:18:54.201Z,6.74
2023-01-15T16:19:54.186Z,6.74
2023-01-15T16:20:54.295Z,6.69
2023-01-15T16:21:54.176Z,6.70
2023-01-15T16:22:54.149Z,6.71
2023-01-15T16:23:54.144Z,6.70
2023-01-15T16:24:54.240Z,6.70